Flood From: 18-02-2018 10:00 Until: 19-02-2018 06:00 warning for: Flood Level: Yellow info button

Although rather usual in this region, locally or potentially dangerous phenomena are expected. (such as local winds, summer thunderstorms, rising streams or high waves) Be aware and pay attention to the latest weather updates, especially if you carry out activities exposed to weather or close to a stream or shoreline. 


Meteo18 Weather Cam more information Meteo18 Weather Cam


Thunder radar more information blitzortung!


Rain radar more information rain snow radar


Visit our other weather sites:

Template documentation
and downloads

And another site



Weather Underground History page Text

Daily Summary for July 21, 2017 Units:  English    Metric   Both
« Previous Day
Next Day »
Daily Weekly Monthly Yearly Custom
  High: Low: Average:
Temperature: TemperatureC °F 10.4 °F 18 °F
Dew Point: DewpointC °F 8.8 °F 11.5 °F
Humidity: Humidity % 49 % 67 %
Wind Speed: WindSpeedKMH mph 0.0 mph 5.2 mph
Wind Gust: WindSpeedGustKMH mph - -
Wind:- - SSW
Pressure: PressurehPa in 1011.4 in -
Precipitation: 0.0 in    
Historical Graphs
 
 
Tabular Data for July 21, 2017
Time Temperature Dew Point Pressure Wind Wind Speed Wind Gust Humidity Rainfall Rate (Hourly)
TemperatureC °F DewpointC °F PressurehPa in Calm     Humidity % HourlyPrecipMM in
00:07 15.0 °F 11.8 °F 1016.1 in Calm   3.2 mph 81 % 0.0 in
00:12 15.1 °F 11.9 °F 1016.1 in Calm   3.2 mph 81 % 0.0 in
00:17 15.2 °F 11.8 °F 1016.1 in Calm   3.2 mph 80 % 0.0 in
00:22 15.3 °F 11.9 °F 1016.1 in Calm   1.6 mph 80 % 0.0 in
00:27 15.2 °F 11.8 °F 1016.1 in Calm   1.6 mph 80 % 0.0 in
00:32 15.2 °F 12.0 °F 1016.1 in Calm     81 % 0.0 in
00:37 15.1 °F 11.9 °F 1016.1 in Calm     81 % 0.0 in
00:42 15.1 °F 11.9 °F 1016.1 in Calm     81 % 0.0 in
00:47 15.2 °F 12.0 °F 1016.1 in Calm     81 % 0.0 in
00:52 15.1 °F 11.9 °F 1016.1 in Calm     81 % 0.0 in
01:02 14.8 °F 11.8 °F 1016.1 in Calm   1.6 mph 82 % 0.0 in
01:07 14.7 °F 11.8 °F 1016.1 in Calm   3.2 mph 83 % 0.0 in
01:12 14.8 °F 11.8 °F 1016.1 in Calm   3.2 mph 82 % 0.0 in
01:17 14.8 °F 11.8 °F 1016.1 in Calm   1.6 mph 82 % 0.0 in
01:22 14.8 °F 11.8 °F 1016.1 in Calm   1.6 mph 82 % 0.0 in
01:27 14.8 °F 11.8 °F 1016.1 in Calm   1.6 mph 82 % 0.0 in
01:32 14.8 °F 11.8 °F 1016.1 in Calm   1.6 mph 82 % 0.0 in
01:37 14.7 °F 11.7 °F 1016.1 in Calm   1.6 mph 82 % 0.0 in
01:42 14.7 °F 11.8 °F 1016.1 in Calm   1.6 mph 83 % 0.0 in
01:47 14.6 °F 11.6 °F 1016.1 in Calm     82 % 0.0 in
01:52 14.6 °F 11.7 °F 1016.1 in Calm     83 % 0.0 in
01:57 14.4 °F 11.5 °F 1016.1 in Calm     83 % 0.0 in
02:02 14.3 °F 11.5 °F 1016.1 in Calm     83 % 0.0 in
02:07 14.3 °F 11.6 °F 1016.1 in Calm     84 % 0.0 in
02:12 14.3 °F 11.5 °F 1016.1 in Calm     83 % 0.0 in
02:17 14.3 °F 11.5 °F 1016.1 in Calm     83 % 0.0 in
02:22 14.1 °F 11.3 °F 1016.1 in Calm     83 % 0.0 in
02:27 13.8 °F 11.0 °F 1016.1 in Calm     83 % 0.0 in
02:32 13.9 °F 11.1 °F 1016.1 in SW 4.8 mph   83 % 0.0 in
02:37 14.6 °F 11.2 °F 1016.1 in SW 3.2 mph 8.0 mph 80 % 0.0 in
02:42 14.7 °F 11.1 °F 1016.1 in SW 1.6 mph 8.0 mph 79 % 0.0 in
02:52 14.6 °F 11.0 °F 1015.8 in Calm   9.7 mph 79 % 0.0 in
03:02 14.3 °F 10.9 °F 1015.8 in NNW 1.6 mph 1.6 mph 80 % 0.0 in
03:12 13.3 °F 10.5 °F 1015.5 in NNE 4.8 mph 4.8 mph 83 % 0.0 in
03:22 13.1 °F 10.8 °F 1015.5 in NNE 1.6 mph 6.4 mph 86 % 0.0 in
03:27 13.2 °F 10.9 °F 1015.5 in Calm   4.8 mph 86 % 0.0 in
03:32 13.3 °F 11.0 °F 1015.5 in Calm   4.8 mph 86 % 0.0 in
03:42 13.3 °F 11.0 °F 1015.5 in SW 1.6 mph 3.2 mph 86 % 0.0 in
03:47 13.3 °F 10.8 °F 1015.5 in Calm   1.6 mph 85 % 0.0 in
03:52 13.3 °F 10.8 °F 1015.5 in Calm   1.6 mph 85 % 0.0 in
03:57 13.2 °F 10.7 °F 1015.5 in Calm   1.6 mph 85 % 0.0 in
04:02 13.3 °F 10.8 °F 1015.5 in SE 3.2 mph 3.2 mph 85 % 0.0 in
04:07 13.3 °F 10.7 °F 1015.5 in Calm   3.2 mph 84 % 0.0 in
04:12 12.9 °F 10.4 °F 1015.5 in Calm   3.2 mph 85 % 0.0 in
04:17 12.8 °F 10.3 °F 1015.5 in Calm   3.2 mph 85 % 0.0 in
04:22 12.8 °F 10.3 °F 1015.5 in Calm   3.2 mph 85 % 0.0 in
04:32 12.7 °F 10.2 °F 1015.5 in Calm   1.6 mph 85 % 0.0 in
04:42 12.4 °F 10.1 °F 1015.5 in Calm     86 % 0.0 in
04:47 12.3 °F 10.0 °F 1015.5 in Calm   1.6 mph 86 % 0.0 in
04:52 12.0 °F 9.7 °F 1015.5 in SSE 1.6 mph 1.6 mph 86 % 0.0 in
04:57 11.7 °F 9.6 °F 1015.5 in SE 1.6 mph 3.2 mph 87 % 0.0 in
05:02 11.4 °F 9.5 °F 1015.5 in Calm   3.2 mph 88 % 0.0 in
05:12 11.3 °F 9.6 °F 1015.5 in Calm   4.8 mph 89 % 0.0 in
05:17 11.2 °F 9.5 °F 1015.5 in SE 1.6 mph 4.8 mph 89 % 0.0 in
05:22 11.1 °F 9.4 °F 1015.5 in SE 1.6 mph 4.8 mph 89 % 0.0 in
05:32 11.0 °F 9.3 °F 1015.5 in Calm   3.2 mph 89 % 0.0 in
05:37 11.0 °F 9.4 °F 1015.5 in Calm   3.2 mph 90 % 0.0 in
05:42 11.0 °F 9.4 °F 1015.5 in Calm   3.2 mph 90 % 0.0 in
05:52 10.9 °F 9.2 °F 1015.5 in Calm   1.6 mph 89 % 0.0 in
05:57 10.9 °F 9.3 °F 1015.5 in Calm   1.6 mph 90 % 0.0 in
06:07 10.9 °F 9.3 °F 1015.5 in Calm   1.6 mph 90 % 0.0 in
06:12 10.9 °F 9.3 °F 1015.5 in Calm   1.6 mph 90 % 0.0 in
06:17 11.0 °F 9.4 °F 1015.5 in Calm   1.6 mph 90 % 0.0 in
06:22 10.9 °F 9.2 °F 1015.5 in Calm   1.6 mph 89 % 0.0 in
06:32 10.6 °F 8.9 °F 1015.5 in Calm   1.6 mph 89 % 0.0 in
06:42 10.4 °F 8.8 °F 1015.5 in Calm   1.6 mph 90 % 0.0 in
06:47 10.6 °F 9.0 °F 1015.5 in Calm     90 % 0.0 in
06:52 10.7 °F 9.1 °F 1015.5 in Calm     90 % 0.0 in
06:57 10.9 °F 9.2 °F 1015.5 in Calm     89 % 0.0 in
07:02 11.0 °F 9.1 °F 1015.5 in Calm     88 % 0.0 in
07:12 11.4 °F 9.5 °F 1015.5 in Calm     88 % 0.0 in
07:17 11.4 °F 9.3 °F 1015.5 in SSW 1.6 mph 1.6 mph 87 % 0.0 in
07:22 11.6 °F 9.5 °F 1015.5 in SSW 1.6 mph 1.6 mph 87 % 0.0 in
07:32 12.0 °F 9.7 °F 1015.5 in SSW 3.2 mph 4.8 mph 86 % 0.0 in
07:42 12.4 °F 10.3 °F 1015.5 in SSE 1.6 mph 4.8 mph 87 % 0.0 in
07:47 12.9 °F 10.6 °F 1015.5 in Calm   4.8 mph 86 % 0.0 in
07:52 13.2 °F 10.7 °F 1015.5 in SSW 4.8 mph 4.8 mph 85 % 0.0 in
07:57 13.3 °F 10.7 °F 1015.5 in SSE 1.6 mph 4.8 mph 84 % 0.0 in
08:02 13.6 °F 10.8 °F 1015.5 in Calm   4.8 mph 83 % 0.0 in
08:12 13.9 °F 10.7 °F 1015.5 in SSW 6.4 mph 6.4 mph 81 % 0.0 in
08:17 13.9 °F 10.7 °F 1015.5 in SW 3.2 mph 6.4 mph 81 % 0.0 in
08:22 13.9 °F 10.7 °F 1015.5 in SW 3.2 mph 6.4 mph 81 % 0.0 in
08:32 14.3 °F 10.9 °F 1015.5 in SW 1.6 mph 8.0 mph 80 % 0.0 in
08:42 14.7 °F 10.9 °F 1015.5 in SW 1.6 mph 8.0 mph 78 % 0.0 in
08:52 15.1 °F 10.9 °F 1015.5 in Calm   6.4 mph 76 % 0.0 in
09:02 15.6 °F 11.2 °F 1015.5 in SW 3.2 mph 6.4 mph 75 % 0.0 in
09:07 15.6 °F 11.0 °F 1015.5 in SW 8.0 mph 8.0 mph 74 % 0.0 in
09:12 15.4 °F 11.0 °F 1015.5 in SSE 4.8 mph 6.4 mph 75 % 0.0 in
09:17 15.5 °F 10.9 °F 1015.5 in SSW 3.2 mph 9.7 mph 74 % 0.0 in
09:22 15.8 °F 11.4 °F 1015.5 in SSW 3.2 mph 9.7 mph 75 % 0.0 in
09:32 15.9 °F 10.9 °F 1015.5 in SSW 1.6 mph 9.7 mph 72 % 0.0 in
09:42 16.4 °F 11.3 °F 1015.5 in SW 4.8 mph 8.0 mph 72 % 0.0 in
09:52 17.0 °F 11.3 °F 1015.5 in SSW 3.2 mph 8.0 mph 69 % 0.0 in
09:57 17.3 °F 11.6 °F 1015.5 in SW 8.0 mph 8.0 mph 69 % 0.0 in
10:02 17.2 °F 11.2 °F 1015.5 in WSW 3.2 mph 8.0 mph 68 % 0.0 in
10:12 17.7 °F 11.3 °F 1015.5 in SW 4.8 mph 9.7 mph 66 % 0.0 in
10:17 17.8 °F 11.4 °F 1015.5 in SW 1.6 mph 8.0 mph 66 % 0.0 in
10:22 17.9 °F 11.0 °F 1015.5 in SW 1.6 mph 8.0 mph 64 % 0.0 in
10:32 18.2 °F 10.6 °F 1015.5 in ESE 1.6 mph 8.0 mph 61 % 0.0 in
10:42 18.2 °F 10.6 °F 1015.5 in WSW 4.8 mph 6.4 mph 61 % 0.0 in
10:52 18.3 °F 10.6 °F 1015.5 in SW 3.2 mph 14.5 mph 61 % 0.0 in
11:02 18.2 °F 10.6 °F 1015.5 in SW 6.4 mph 12.9 mph 61 % 0.0 in
11:12 18.7 °F 10.3 °F 1015.1 in WSW 8.0 mph 12.9 mph 58 % 0.0 in
11:17 18.6 °F 10.2 °F 1015.1 in WSW 4.8 mph 11.3 mph 58 % 0.0 in
11:22 18.7 °F 10.5 °F 1015.1 in WSW 1.6 mph 11.3 mph 59 % 0.0 in
11:32 19.1 °F 10.1 °F 1015.1 in SSW 6.4 mph 12.9 mph 56 % 0.0 in
11:42 19.3 °F 10.3 °F 1014.8 in SW 4.8 mph 11.3 mph 56 % 0.0 in
11:47 19.5 °F 10.2 °F 1014.8 in WSW 3.2 mph 11.3 mph 55 % 0.0 in
11:52 19.7 °F 10.4 °F 1014.8 in South 6.4 mph 11.3 mph 55 % 0.0 in
12:02 19.5 °F 10.8 °F 1014.8 in SSW 4.8 mph 9.7 mph 57 % 0.0 in
12:12 19.9 °F 10.6 °F 1014.8 in Calm   14.5 mph 55 % 0.0 in
12:17 20.2 °F 10.9 °F 1014.4 in SW 6.4 mph 16.1 mph 55 % 0.0 in
12:22 20.5 °F 11.4 °F 1014.4 in SW 6.4 mph 16.1 mph 56 % 0.0 in
12:32 20.9 °F 11.0 °F 1014.4 in SSW 6.4 mph 12.9 mph 53 % 0.0 in
12:42 21.1 °F 11.1 °F 1014.4 in South 3.2 mph 16.1 mph 53 % 0.0 in
12:47 21.0 °F 11.3 °F 1014.4 in WSW 9.7 mph 19.3 mph 54 % 0.0 in
12:52 21.0 °F 11.3 °F 1014.1 in SSW 8.0 mph 19.3 mph 54 % 0.0 in
12:57 21.3 °F 11.6 °F 1014.1 in West 12.9 mph 19.3 mph 54 % 0.0 in
13:02 21.4 °F 11.4 °F 1014.4 in West 8.0 mph 19.3 mph 53 % 0.0 in
13:12 21.8 °F 11.5 °F 1014.1 in WSW 19.3 mph 20.9 mph 52 % 0.0 in
13:17 21.8 °F 11.5 °F 1014.1 in SSW 9.7 mph 22.5 mph 52 % 0.0 in
13:22 21.9 °F 11.0 °F 1014.1 in SSE 3.2 mph 22.5 mph 50 % 0.0 in
13:32 22.0 °F 11.4 °F 1014.1 in West 11.3 mph 22.5 mph 51 % 0.0 in
13:42 22.4 °F 11.8 °F 1013.8 in SW 8.0 mph 20.9 mph 51 % 0.0 in
13:47 22.4 °F 11.5 °F 1013.8 in SSW 12.9 mph 20.9 mph 50 % 0.0 in
13:52 22.6 °F 11.6 °F 1013.8 in SW 11.3 mph 20.9 mph 50 % 0.0 in
14:02 22.4 °F 11.8 °F 1013.8 in SW 6.4 mph 22.5 mph 51 % 0.0 in
14:07 22.5 °F 11.9 °F 1013.8 in SW 9.7 mph 22.5 mph 51 % 0.0 in
14:12 22.8 °F 12.1 °F 1013.8 in SW 12.9 mph 22.5 mph 51 % 0.0 in
14:22 22.7 °F 11.7 °F 1013.8 in South 8.0 mph 24.1 mph 50 % 0.0 in
14:32 23.1 °F 12.4 °F 1013.4 in SW 9.7 mph 24.1 mph 51 % 0.0 in
14:37 22.9 °F 11.6 °F 1013.4 in SW 14.5 mph 25.7 mph 49 % 0.0 in
14:42 22.8 °F 11.8 °F 1013.8 in WSW 12.9 mph 25.7 mph 50 % 0.0 in
14:52 22.7 °F 11.7 °F 1013.4 in WSW 17.7 mph 25.7 mph 50 % 0.0 in
14:57 22.8 °F 12.1 °F 1013.4 in West 9.7 mph 20.9 mph 51 % 0.0 in
15:02 22.8 °F 11.5 °F 1013.4 in ESE 12.9 mph 20.9 mph 49 % 0.0 in
15:12 22.7 °F 12.0 °F 1013.4 in West 12.9 mph 24.1 mph 51 % 0.0 in
15:17 22.8 °F 11.8 °F 1013.4 in WSW 12.9 mph 22.5 mph 50 % 0.0 in
15:22 22.9 °F 11.9 °F 1013.1 in SW 9.7 mph 22.5 mph 50 % 0.0 in
15:27 22.9 °F 12.2 °F 1013.1 in SSW 8.0 mph 24.1 mph 51 % 0.0 in
15:32 23.1 °F 12.1 °F 1013.1 in SW 9.7 mph 24.1 mph 50 % 0.0 in
15:42 22.8 °F 11.8 °F 1013.1 in WSW 8.0 mph 25.7 mph 50 % 0.0 in
15:52 22.7 °F 12.0 °F 1012.8 in West 16.1 mph 24.1 mph 51 % 0.0 in
16:02 22.6 °F 11.6 °F 1012.8 in SW 27.4 mph 27.4 mph 50 % 0.0 in
16:12 22.6 °F 12.2 °F 1012.8 in SW 12.9 mph 27.4 mph 52 % 0.0 in
16:17 22.8 °F 12.4 °F 1012.4 in SW 17.7 mph 27.4 mph 52 % 0.0 in
16:22 22.7 °F 12.3 °F 1012.4 in SSW 12.9 mph 27.4 mph 52 % 0.0 in
16:32 22.7 °F 12.3 °F 1012.1 in SW 11.3 mph 22.5 mph 52 % 0.0 in
16:42 22.7 °F 12.3 °F 1012.1 in SSW 11.3 mph 22.5 mph 52 % 0.0 in
16:47 22.9 °F 12.5 °F 1012.1 in SW 16.1 mph 22.5 mph 52 % 0.0 in
16:52 23.2 °F 12.5 °F 1012.1 in WSW 4.8 mph 22.5 mph 51 % 0.0 in
16:57 23.3 °F 12.6 °F 1012.1 in SW 9.7 mph 20.9 mph 51 % 0.0 in
17:02 23.3 °F 12.6 °F 1012.4 in WSW 14.5 mph 20.9 mph 51 % 0.0 in
17:07 23.2 °F 12.5 °F 1012.4 in SSW 14.5 mph 24.1 mph 51 % 0.0 in
17:12 23.1 °F 12.4 °F 1012.4 in SW 8.0 mph 24.1 mph 51 % 0.0 in
17:17 23.2 °F 12.5 °F 1012.4 in SW 16.1 mph 22.5 mph 51 % 0.0 in
17:22 23.3 °F 12.9 °F 1012.4 in SW 22.5 mph 22.5 mph 52 % 0.0 in
17:27 23.4 °F 12.7 °F 1012.4 in WSW 8.0 mph 24.1 mph 51 % 0.0 in
17:32 23.6 °F 12.9 °F 1012.4 in SSW 8.0 mph 24.1 mph 51 % 0.0 in
17:37 23.6 °F 12.6 °F 1012.8 in SW 11.3 mph 24.1 mph 50 % 0.0 in
17:42 23.6 °F 12.6 °F 1012.8 in SW 12.9 mph 24.1 mph 50 % 0.0 in
17:52 23.4 °F 12.7 °F 1012.8 in WSW 14.5 mph 24.1 mph 51 % 0.0 in
18:02 23.4 °F 12.7 °F 1012.4 in SSW 16.1 mph 24.1 mph 51 % 0.0 in
18:07 23.4 °F 12.7 °F 1012.4 in SW 14.5 mph 24.1 mph 51 % 0.0 in
18:12 23.4 °F 13.0 °F 1012.4 in SSW 11.3 mph 24.1 mph 52 % 0.0 in
18:17 23.2 °F 12.8 °F 1012.4 in South 9.7 mph 22.5 mph 52 % 0.0 in
18:22 23.2 °F 12.8 °F 1012.4 in South 11.3 mph 20.9 mph 52 % 0.0 in
18:32 23.2 °F 12.8 °F 1012.1 in SSW 9.7 mph 20.9 mph 52 % 0.0 in
18:37 23.2 °F 13.1 °F 1012.1 in SSW 9.7 mph 20.9 mph 53 % 0.0 in
18:42 23.2 °F 13.1 °F 1012.1 in SE 8.0 mph 17.7 mph 53 % 0.0 in
18:52 23.3 °F 13.2 °F 1011.7 in SSE 4.8 mph 16.1 mph 53 % 0.0 in
18:57 23.2 °F 13.1 °F 1011.7 in SE 3.2 mph 14.5 mph 53 % 0.0 in
19:02 23.2 °F 13.1 °F 1011.7 in ENE 6.4 mph 14.5 mph 53 % 0.0 in
19:12 23.1 °F 13.3 °F 1011.7 in South 4.8 mph 14.5 mph 54 % 0.0 in
19:17 22.9 °F 13.4 °F 1011.7 in SSW 3.2 mph 11.3 mph 55 % 0.0 in
19:22 22.8 °F 13.3 °F 1011.7 in SSW 4.8 mph 11.3 mph 55 % 0.0 in
19:32 22.9 °F 13.1 °F 1011.7 in South 11.3 mph 14.5 mph 54 % 0.0 in
19:37 22.7 °F 13.2 °F 1011.7 in SE 8.0 mph 14.5 mph 55 % 0.0 in
19:42 22.6 °F 13.4 °F 1011.7 in SSW 8.0 mph 14.5 mph 56 % 0.0 in
19:52 22.4 °F 13.2 °F 1011.7 in SW 4.8 mph 14.5 mph 56 % 0.0 in
20:02 22.8 °F 13.3 °F 1011.4 in South 3.2 mph 14.5 mph 55 % 0.0 in
20:12 23.0 °F 13.2 °F 1011.4 in SSW 4.8 mph 12.9 mph 54 % 0.0 in
20:17 23.0 °F 13.2 °F 1011.4 in South 9.7 mph 16.1 mph 54 % 0.0 in
20:22 23.0 °F 13.2 °F 1011.4 in SSW 9.7 mph 16.1 mph 54 % 0.0 in
20:32 22.8 °F 13.3 °F 1011.7 in SSW 12.9 mph 17.7 mph 55 % 0.0 in
20:42 22.7 °F 13.2 °F 1011.7 in SW 6.4 mph 16.1 mph 55 % 0.0 in
20:47 22.6 °F 13.1 °F 1011.7 in SW 9.7 mph 14.5 mph 55 % 0.0 in
20:52 22.4 °F 13.2 °F 1011.7 in SSW 4.8 mph 14.5 mph 56 % 0.0 in
21:02 21.8 °F 12.9 °F 1011.7 in SW 11.3 mph 16.1 mph 57 % 0.0 in
21:12 21.4 °F 13.1 °F 1011.7 in SW 6.4 mph 17.7 mph 59 % 0.0 in
21:17 21.2 °F 13.1 °F 1012.1 in SW 4.8 mph 14.5 mph 60 % 0.0 in
21:22 21.1 °F 13.3 °F 1012.1 in SSE 4.8 mph 14.5 mph 61 % 0.0 in
21:32 20.9 °F 13.1 °F 1012.1 in SSW 6.4 mph 11.3 mph 61 % 0.0 in
21:42 20.9 °F 13.1 °F 1012.1 in SW 3.2 mph 9.7 mph 61 % 0.0 in
21:47 20.9 °F 13.3 °F 1012.4 in South 8.0 mph 12.9 mph 62 % 0.0 in
21:52 20.9 °F 13.3 °F 1012.4 in SSW 4.8 mph 12.9 mph 62 % 0.0 in
22:02 20.9 °F 13.3 °F 1012.4 in SSW 4.8 mph 12.9 mph 62 % 0.0 in
22:12 20.9 °F 13.3 °F 1012.8 in SSW 1.6 mph 14.5 mph 62 % 0.0 in
22:17 20.9 °F 13.6 °F 1012.8 in SSW 4.8 mph 12.9 mph 63 % 0.0 in
22:22 20.8 °F 13.5 °F 1012.8 in SW 6.4 mph 12.9 mph 63 % 0.0 in
22:32 20.7 °F 13.6 °F 1012.8 in SSW 6.4 mph 11.3 mph 64 % 0.0 in
22:37 20.7 °F 13.6 °F 1012.8 in SSW 4.8 mph 11.3 mph 64 % 0.0 in
22:42 20.7 °F 13.4 °F 1012.8 in SW 6.4 mph 11.3 mph 63 % 0.0 in
22:47 20.8 °F 13.5 °F 1012.8 in SW 8.0 mph 11.3 mph 63 % 0.0 in
22:52 20.8 °F 13.5 °F 1012.8 in WSW 4.8 mph 11.3 mph 63 % 0.0 in
23:02 20.5 °F 13.2 °F 1012.8 in SW 4.8 mph 12.9 mph 63 % 0.0 in
23:07 20.4 °F 12.9 °F 1012.8 in SW 9.7 mph 12.9 mph 62 % 0.0 in
23:12 20.3 °F 12.8 °F 1012.8 in WSW 3.2 mph 12.9 mph 62 % 0.0 in
23:17 20.2 °F 12.7 °F 1012.8 in WSW 6.4 mph 12.9 mph 62 % 0.0 in
23:22 20.1 °F 12.3 °F 1012.8 in SW 3.2 mph 12.9 mph 61 % 0.0 in
23:32 20.1 °F 12.3 °F 1013.1 in SW 6.4 mph 12.9 mph 61 % 0.0 in
23:42 20.1 °F 12.3 °F 1013.1 in WSW 4.8 mph 16.1 mph 61 % 0.0 in
23:47 20.1 °F 12.3 °F 1013.1 in SW 6.4 mph 20.9 mph 61 % 0.0 in
23:52 20.1 °F 12.1 °F 1012.8 in West 8.0 mph 20.9 mph 60 % 0.0 in
23:57 20.2 °F 12.2 °F 1013.1 in WSW 11.3 mph 20.9 mph 60 % 0.0 in
Meteo18
Compliments of Weather Underground - 4 mb

Script developed by  Jim McMurry - jmcmurry@mwt.net Adapted for the template by  Wim van der Kuil - Leuven-Template.eu

You find our weather info also at:

European Weather Network

Weather Underground

Equipment we use:

Weather-station
Davis Vue

Weather-program
Meteobridge

Weather-server
Raspberry PI 2 B+

Provider
1 and 1

Davis Vue

Meteobridge

Raspberry PI 2 B+

1 and 1